Beverly, Kentucky
Current Conditions -  °F | °C
As of 1:15 PM on Friday 31 Oct 2014 (Local Time) from KI35 Reporting Station
Overcast Overcast  
Wind Chill: 40°   Ceiling: 2900
Heat Index: 43°   Visibility: 5mi
Dew Point: 43°   Wind: 5mph
Humidity: 100%   Direction: 310°NW
Pressure: 29.93"   Gusts: NA
Location:  36.94°N, 83.53°W
Report Text: KI35 311715Z AUTO 31004KT 5SM SCT004 BKN029 OVC055 06/06 A2993 RMK AO1
Loading
Personal Weather Stations






























Interactive Weather Map
Tropical Storm Tracking
New forecast layout! Learn more

10-Day Weather Forecast

Advertisements
Track Severe Weather on mobile